sensor_id;sensor_type;location;lat;lon;timestamp;P1;durP1;ratioP1;P2;durP2;ratioP2
70705;SDS011;59320;52.316;10.870;2023-06-26T00:00:10;5.18;;;4.68;;
70705;SDS011;59320;52.316;10.870;2023-06-26T00:02:38;5.57;;;4.55;;
70705;SDS011;59320;52.316;10.870;2023-06-26T00:05:06;6.30;;;4.78;;
70705;SDS011;59320;52.316;10.870;2023-06-26T00:07:33;5.20;;;4.70;;
70705;SDS011;59320;52.316;10.870;2023-06-26T00:10:01;5.95;;;4.93;;
70705;SDS011;59320;52.316;10.870;2023-06-26T00:12:29;7.68;;;4.57;;
70705;SDS011;59320;52.316;10.870;2023-06-26T00:14:58;6.85;;;4.97;;
70705;SDS011;59320;52.316;10.870;2023-06-26T00:17:25;5.15;;;4.55;;
70705;SDS011;59320;52.316;10.870;2023-06-26T00:19:52;5.95;;;5.00;;
70705;SDS011;59320;52.316;10.870;2023-06-26T00:22:20;5.05;;;4.55;;
70705;SDS011;59320;52.316;10.870;2023-06-26T00:24:47;5.63;;;4.65;;
70705;SDS011;59320;52.316;10.870;2023-06-26T00:27:14;7.43;;;4.80;;
70705;SDS011;59320;52.316;10.870;2023-06-26T00:29:43;7.30;;;5.18;;
70705;SDS011;59320;52.316;10.870;2023-06-26T00:32:11;7.25;;;4.82;;
70705;SDS011;59320;52.316;10.870;2023-06-26T00:34:38;5.70;;;5.00;;
70705;SDS011;59320;52.316;10.870;2023-06-26T00:37:07;5.97;;;5.32;;
70705;SDS011;59320;52.316;10.870;2023-06-26T00:39:34;6.22;;;5.13;;
70705;SDS011;59320;52.316;10.870;2023-06-26T00:42:01;5.93;;;4.93;;
70705;SDS011;59320;52.316;10.870;2023-06-26T00:44:28;5.70;;;5.15;;
70705;SDS011;59320;52.316;10.870;2023-06-26T00:46:55;5.45;;;4.95;;
70705;SDS011;59320;52.316;10.870;2023-06-26T00:49:24;6.75;;;5.13;;
70705;SDS011;59320;52.316;10.870;2023-06-26T00:51:52;7.25;;;5.20;;
70705;SDS011;59320;52.316;10.870;2023-06-26T00:54:20;5.13;;;4.55;;
70705;SDS011;59320;52.316;10.870;2023-06-26T00:56:48;7.82;;;5.35;;
70705;SDS011;59320;52.316;10.870;2023-06-26T00:59:15;6.30;;;5.28;;
70705;SDS011;59320;52.316;10.870;2023-06-26T01:01:42;6.72;;;5.40;;
70705;SDS011;59320;52.316;10.870;2023-06-26T01:04:10;5.68;;;5.07;;
70705;SDS011;59320;52.316;10.870;2023-06-26T01:06:44;7.22;;;5.28;;
70705;SDS011;59320;52.316;10.870;2023-06-26T01:09:15;8.02;;;5.57;;
70705;SDS011;59320;52.316;10.870;2023-06-26T01:11:44;7.28;;;5.40;;
70705;SDS011;59320;52.316;10.870;2023-06-26T01:14:11;6.57;;;5.57;;
70705;SDS011;59320;52.316;10.870;2023-06-26T01:16:38;5.78;;;5.18;;
70705;SDS011;59320;52.316;10.870;2023-06-26T01:19:09;5.72;;;5.13;;
70705;SDS011;59320;52.316;10.870;2023-06-26T01:21:40;7.15;;;5.20;;
70705;SDS011;59320;52.316;10.870;2023-06-26T01:24:16;6.60;;;5.45;;
70705;SDS011;59320;52.316;10.870;2023-06-26T01:26:49;7.07;;;5.40;;
70705;SDS011;59320;52.316;10.870;2023-06-26T01:29:18;8.10;;;5.30;;
70705;SDS011;59320;52.316;10.870;2023-06-26T01:31:46;6.00;;;5.20;;
70705;SDS011;59320;52.316;10.870;2023-06-26T01:34:15;7.60;;;5.13;;
70705;SDS011;59320;52.316;10.870;2023-06-26T01:36:43;9.20;;;5.78;;
70705;SDS011;59320;52.316;10.870;2023-06-26T01:39:10;5.90;;;5.30;;
70705;SDS011;59320;52.316;10.870;2023-06-26T01:41:38;6.15;;;5.53;;
70705;SDS011;59320;52.316;10.870;2023-06-26T01:44:14;6.65;;;5.60;;
70705;SDS011;59320;52.316;10.870;2023-06-26T01:46:49;7.68;;;5.28;;
70705;SDS011;59320;52.316;10.870;2023-06-26T01:49:26;6.88;;;5.03;;
70705;SDS011;59320;52.316;10.870;2023-06-26T01:52:06;7.70;;;5.88;;
70705;SDS011;59320;52.316;10.870;2023-06-26T01:54:39;6.22;;;5.47;;
70705;SDS011;59320;52.316;10.870;2023-06-26T01:57:13;8.60;;;5.63;;
70705;SDS011;59320;52.316;10.870;2023-06-26T01:59:45;9.85;;;6.05;;
70705;SDS011;59320;52.316;10.870;2023-06-26T02:02:13;10.30;;;5.82;;
70705;SDS011;59320;52.316;10.870;2023-06-26T02:04:40;8.95;;;5.75;;
70705;SDS011;59320;52.316;10.870;2023-06-26T02:07:07;6.15;;;5.55;;
70705;SDS011;59320;52.316;10.870;2023-06-26T02:09:35;6.80;;;5.38;;
70705;SDS011;59320;52.316;10.870;2023-06-26T02:12:03;8.43;;;5.57;;
70705;SDS011;59320;52.316;10.870;2023-06-26T02:14:30;9.93;;;5.78;;
70705;SDS011;59320;52.316;10.870;2023-06-26T02:16:59;10.85;;;5.57;;
70705;SDS011;59320;52.316;10.870;2023-06-26T02:19:26;6.22;;;5.57;;
70705;SDS011;59320;52.316;10.870;2023-06-26T02:21:53;9.02;;;5.43;;
70705;SDS011;59320;52.316;10.870;2023-06-26T02:24:23;6.13;;;5.50;;
70705;SDS011;59320;52.316;10.870;2023-06-26T02:26:50;7.00;;;5.50;;
70705;SDS011;59320;52.316;10.870;2023-06-26T02:29:17;7.53;;;6.20;;
70705;SDS011;59320;52.316;10.870;2023-06-26T02:31:44;7.20;;;5.53;;
70705;SDS011;59320;52.316;10.870;2023-06-26T02:34:12;8.57;;;5.88;;
70705;SDS011;59320;52.316;10.870;2023-06-26T02:36:39;7.82;;;5.78;;
70705;SDS011;59320;52.316;10.870;2023-06-26T02:39:07;6.05;;;5.45;;
70705;SDS011;59320;52.316;10.870;2023-06-26T02:41:34;7.40;;;5.50;;
70705;SDS011;59320;52.316;10.870;2023-06-26T02:44:01;7.97;;;5.05;;
70705;SDS011;59320;52.316;10.870;2023-06-26T02:46:28;9.65;;;5.72;;
70705;SDS011;59320;52.316;10.870;2023-06-26T02:48:56;10.73;;;5.30;;
70705;SDS011;59320;52.316;10.870;2023-06-26T02:51:25;6.22;;;5.40;;
70705;SDS011;59320;52.316;10.870;2023-06-26T02:53:53;5.53;;;5.03;;
70705;SDS011;59320;52.316;10.870;2023-06-26T02:56:20;5.35;;;4.85;;
70705;SDS011;59320;52.316;10.870;2023-06-26T02:58:47;6.50;;;5.18;;
70705;SDS011;59320;52.316;10.870;2023-06-26T03:01:14;5.85;;;5.15;;
70705;SDS011;59320;52.316;10.870;2023-06-26T03:03:42;7.82;;;5.35;;
70705;SDS011;59320;52.316;10.870;2023-06-26T03:06:13;8.80;;;5.45;;
70705;SDS011;59320;52.316;10.870;2023-06-26T03:08:43;6.70;;;5.60;;
70705;SDS011;59320;52.316;10.870;2023-06-26T03:11:11;8.77;;;5.65;;
70705;SDS011;59320;52.316;10.870;2023-06-26T03:13:38;5.95;;;5.18;;
70705;SDS011;59320;52.316;10.870;2023-06-26T03:16:06;6.53;;;5.35;;
70705;SDS011;59320;52.316;10.870;2023-06-26T03:18:33;7.50;;;5.03;;
70705;SDS011;59320;52.316;10.870;2023-06-26T03:21:00;8.27;;;5.32;;
70705;SDS011;59320;52.316;10.870;2023-06-26T03:23:27;5.50;;;5.00;;
70705;SDS011;59320;52.316;10.870;2023-06-26T03:25:56;5.38;;;4.88;;
70705;SDS011;59320;52.316;10.870;2023-06-26T03:28:26;6.75;;;4.82;;
70705;SDS011;59320;52.316;10.870;2023-06-26T03:30:53;7.53;;;5.43;;
70705;SDS011;59320;52.316;10.870;2023-06-26T03:33:20;6.13;;;4.80;;
70705;SDS011;59320;52.316;10.870;2023-06-26T03:35:47;6.50;;;4.82;;
70705;SDS011;59320;52.316;10.870;2023-06-26T03:38:14;5.53;;;4.65;;
70705;SDS011;59320;52.316;10.870;2023-06-26T03:40:43;5.93;;;5.10;;
70705;SDS011;59320;52.316;10.870;2023-06-26T03:43:11;5.80;;;5.18;;
70705;SDS011;59320;52.316;10.870;2023-06-26T03:45:48;6.97;;;4.68;;
70705;SDS011;59320;52.316;10.870;2023-06-26T03:48:15;5.22;;;4.72;;
70705;SDS011;59320;52.316;10.870;2023-06-26T03:50:42;5.63;;;4.95;;
70705;SDS011;59320;52.316;10.870;2023-06-26T03:53:09;5.70;;;5.03;;
70705;SDS011;59320;52.316;10.870;2023-06-26T03:55:39;7.65;;;5.32;;
70705;SDS011;59320;52.316;10.870;2023-06-26T03:58:06;6.80;;;5.03;;
70705;SDS011;59320;52.316;10.870;2023-06-26T04:00:35;7.03;;;4.88;;
70705;SDS011;59320;52.316;10.870;2023-06-26T04:03:02;8.05;;;5.25;;
70705;SDS011;59320;52.316;10.870;2023-06-26T04:05:30;5.68;;;5.10;;
70705;SDS011;59320;52.316;10.870;2023-06-26T04:07:57;5.95;;;4.65;;
70705;SDS011;59320;52.316;10.870;2023-06-26T04:10:25;6.38;;;4.78;;
70705;SDS011;59320;52.316;10.870;2023-06-26T04:12:52;6.15;;;5.28;;
70705;SDS011;59320;52.316;10.870;2023-06-26T04:15:19;8.75;;;4.70;;
70705;SDS011;59320;52.316;10.870;2023-06-26T04:17:47;5.15;;;4.47;;
70705;SDS011;59320;52.316;10.870;2023-06-26T04:20:14;5.13;;;4.40;;
70705;SDS011;59320;52.316;10.870;2023-06-26T04:22:41;5.50;;;4.45;;
70705;SDS011;59320;52.316;10.870;2023-06-26T04:25:08;6.32;;;4.63;;
70705;SDS011;59320;52.316;10.870;2023-06-26T04:27:37;5.20;;;4.70;;
70705;SDS011;59320;52.316;10.870;2023-06-26T04:30:04;5.47;;;4.43;;
70705;SDS011;59320;52.316;10.870;2023-06-26T04:32:32;5.40;;;4.78;;
70705;SDS011;59320;52.316;10.870;2023-06-26T04:35:00;6.20;;;4.57;;
70705;SDS011;59320;52.316;10.870;2023-06-26T04:37:28;5.07;;;4.53;;
70705;SDS011;59320;52.316;10.870;2023-06-26T04:39:55;5.55;;;4.18;;
70705;SDS011;59320;52.316;10.870;2023-06-26T04:42:22;5.32;;;4.80;;
70705;SDS011;59320;52.316;10.870;2023-06-26T04:44:49;6.13;;;4.53;;
70705;SDS011;59320;52.316;10.870;2023-06-26T04:47:16;4.88;;;4.18;;
70705;SDS011;59320;52.316;10.870;2023-06-26T04:49:43;6.22;;;4.40;;
70705;SDS011;59320;52.316;10.870;2023-06-26T04:52:12;4.93;;;4.22;;
70705;SDS011;59320;52.316;10.870;2023-06-26T04:54:39;5.75;;;4.65;;
70705;SDS011;59320;52.316;10.870;2023-06-26T04:57:06;5.10;;;4.32;;
70705;SDS011;59320;52.316;10.870;2023-06-26T04:59:35;6.15;;;4.57;;
70705;SDS011;59320;52.316;10.870;2023-06-26T05:02:02;5.55;;;4.32;;
70705;SDS011;59320;52.316;10.870;2023-06-26T05:04:30;6.18;;;4.35;;
70705;SDS011;59320;52.316;10.870;2023-06-26T05:06:57;4.93;;;4.43;;
70705;SDS011;59320;52.316;10.870;2023-06-26T05:09:25;4.28;;;3.88;;
70705;SDS011;59320;52.316;10.870;2023-06-26T05:11:52;6.80;;;4.28;;
70705;SDS011;59320;52.316;10.870;2023-06-26T05:14:19;5.18;;;3.75;;
70705;SDS011;59320;52.316;10.870;2023-06-26T05:16:46;5.10;;;4.60;;
70705;SDS011;59320;52.316;10.870;2023-06-26T05:19:13;4.68;;;4.20;;
70705;SDS011;59320;52.316;10.870;2023-06-26T05:21:40;5.45;;;4.45;;
70705;SDS011;59320;52.316;10.870;2023-06-26T05:24:08;4.80;;;4.30;;
70705;SDS011;59320;52.316;10.870;2023-06-26T05:26:37;4.75;;;4.20;;
70705;SDS011;59320;52.316;10.870;2023-06-26T05:29:05;5.07;;;4.13;;
70705;SDS011;59320;52.316;10.870;2023-06-26T05:31:32;4.45;;;4.05;;
70705;SDS011;59320;52.316;10.870;2023-06-26T05:34:02;4.85;;;4.32;;
70705;SDS011;59320;52.316;10.870;2023-06-26T05:36:30;4.15;;;3.85;;
70705;SDS011;59320;52.316;10.870;2023-06-26T05:39:00;5.72;;;4.47;;
70705;SDS011;59320;52.316;10.870;2023-06-26T05:41:27;5.13;;;4.07;;
70705;SDS011;59320;52.316;10.870;2023-06-26T05:43:56;4.43;;;4.03;;
70705;SDS011;59320;52.316;10.870;2023-06-26T05:46:23;4.57;;;3.60;;
70705;SDS011;59320;52.316;10.870;2023-06-26T05:48:50;4.30;;;3.90;;
70705;SDS011;59320;52.316;10.870;2023-06-26T05:51:17;7.25;;;4.35;;
70705;SDS011;59320;52.316;10.870;2023-06-26T05:53:45;5.57;;;4.07;;
70705;SDS011;59320;52.316;10.870;2023-06-26T05:56:12;4.30;;;3.60;;
70705;SDS011;59320;52.316;10.870;2023-06-26T05:58:40;4.13;;;3.72;;
70705;SDS011;59320;52.316;10.870;2023-06-26T06:01:09;4.90;;;3.78;;
70705;SDS011;59320;52.316;10.870;2023-06-26T06:03:36;4.93;;;3.88;;
70705;SDS011;59320;52.316;10.870;2023-06-26T06:06:04;4.40;;;3.70;;
70705;SDS011;59320;52.316;10.870;2023-06-26T06:08:32;4.18;;;3.78;;
70705;SDS011;59320;52.316;10.870;2023-06-26T06:10:59;4.65;;;4.00;;
70705;SDS011;59320;52.316;10.870;2023-06-26T06:13:27;10.52;;;4.30;;
70705;SDS011;59320;52.316;10.870;2023-06-26T06:15:54;5.35;;;4.15;;
70705;SDS011;59320;52.316;10.870;2023-06-26T06:18:23;4.00;;;3.33;;
70705;SDS011;59320;52.316;10.870;2023-06-26T06:20:50;5.97;;;3.60;;
70705;SDS011;59320;52.316;10.870;2023-06-26T06:23:17;4.30;;;3.88;;
70705;SDS011;59320;52.316;10.870;2023-06-26T06:25:44;4.90;;;4.00;;
70705;SDS011;59320;52.316;10.870;2023-06-26T06:28:11;3.92;;;3.58;;
70705;SDS011;59320;52.316;10.870;2023-06-26T06:30:41;4.15;;;3.80;;
70705;SDS011;59320;52.316;10.870;2023-06-26T06:33:08;4.30;;;3.90;;
70705;SDS011;59320;52.316;10.870;2023-06-26T06:35:36;4.03;;;3.40;;
70705;SDS011;59320;52.316;10.870;2023-06-26T06:38:03;3.83;;;3.42;;
70705;SDS011;59320;52.316;10.870;2023-06-26T06:40:30;4.32;;;3.30;;
70705;SDS011;59320;52.316;10.870;2023-06-26T06:42:58;4.50;;;3.42;;
70705;SDS011;59320;52.316;10.870;2023-06-26T06:45:25;4.28;;;3.50;;
70705;SDS011;59320;52.316;10.870;2023-06-26T06:47:52;6.07;;;3.40;;
70705;SDS011;59320;52.316;10.870;2023-06-26T06:50:19;4.70;;;3.78;;
70705;SDS011;59320;52.316;10.870;2023-06-26T06:52:47;5.85;;;3.83;;
70705;SDS011;59320;52.316;10.870;2023-06-26T06:55:14;4.00;;;3.60;;
70705;SDS011;59320;52.316;10.870;2023-06-26T06:57:41;4.30;;;3.80;;
70705;SDS011;59320;52.316;10.870;2023-06-26T07:00:09;5.85;;;3.58;;
70705;SDS011;59320;52.316;10.870;2023-06-26T07:02:41;4.20;;;3.80;;
70705;SDS011;59320;52.316;10.870;2023-06-26T07:05:09;4.38;;;3.28;;
70705;SDS011;59320;52.316;10.870;2023-06-26T07:07:37;4.13;;;3.28;;
70705;SDS011;59320;52.316;10.870;2023-06-26T07:10:09;4.20;;;3.50;;
70705;SDS011;59320;52.316;10.870;2023-06-26T07:12:37;3.80;;;3.50;;
70705;SDS011;59320;52.316;10.870;2023-06-26T07:15:05;3.83;;;3.53;;
70705;SDS011;59320;52.316;10.870;2023-06-26T07:17:33;3.72;;;3.42;;
70705;SDS011;59320;52.316;10.870;2023-06-26T07:20:00;4.25;;;3.25;;
70705;SDS011;59320;52.316;10.870;2023-06-26T07:22:31;3.78;;;3.30;;
70705;SDS011;59320;52.316;10.870;2023-06-26T07:24:58;3.95;;;3.55;;
70705;SDS011;59320;52.316;10.870;2023-06-26T07:27:27;3.90;;;3.20;;
70705;SDS011;59320;52.316;10.870;2023-06-26T07:29:54;6.72;;;3.90;;
70705;SDS011;59320;52.316;10.870;2023-06-26T07:32:21;3.88;;;3.40;;
70705;SDS011;59320;52.316;10.870;2023-06-26T07:34:48;4.15;;;3.78;;
70705;SDS011;59320;52.316;10.870;2023-06-26T07:37:15;6.45;;;3.55;;
70705;SDS011;59320;52.316;10.870;2023-06-26T07:39:42;5.25;;;3.72;;
70705;SDS011;59320;52.316;10.870;2023-06-26T07:42:09;3.50;;;3.20;;
70705;SDS011;59320;52.316;10.870;2023-06-26T07:44:37;5.03;;;3.90;;
70705;SDS011;59320;52.316;10.870;2023-06-26T07:47:04;3.92;;;3.50;;
70705;SDS011;59320;52.316;10.870;2023-06-26T07:49:31;7.10;;;4.10;;
70705;SDS011;59320;52.316;10.870;2023-06-26T07:51:59;5.25;;;4.07;;
70705;SDS011;59320;52.316;10.870;2023-06-26T07:54:26;4.53;;;3.90;;
70705;SDS011;59320;52.316;10.870;2023-06-26T07:56:53;4.60;;;3.92;;
70705;SDS011;59320;52.316;10.870;2023-06-26T07:59:21;4.45;;;3.90;;
70705;SDS011;59320;52.316;10.870;2023-06-26T08:01:51;4.18;;;3.85;;
70705;SDS011;59320;52.316;10.870;2023-06-26T08:04:19;6.25;;;3.92;;
70705;SDS011;59320;52.316;10.870;2023-06-26T08:06:47;7.13;;;4.30;;
70705;SDS011;59320;52.316;10.870;2023-06-26T08:09:15;4.35;;;3.95;;
70705;SDS011;59320;52.316;10.870;2023-06-26T08:11:42;4.38;;;3.97;;
70705;SDS011;59320;52.316;10.870;2023-06-26T08:14:09;4.60;;;4.03;;
70705;SDS011;59320;52.316;10.870;2023-06-26T08:16:37;4.13;;;3.83;;
70705;SDS011;59320;52.316;10.870;2023-06-26T08:19:05;4.63;;;3.97;;
70705;SDS011;59320;52.316;10.870;2023-06-26T08:21:32;4.13;;;3.75;;
70705;SDS011;59320;52.316;10.870;2023-06-26T08:23:59;4.50;;;4.10;;
70705;SDS011;59320;52.316;10.870;2023-06-26T08:26:26;4.80;;;4.40;;
70705;SDS011;59320;52.316;10.870;2023-06-26T08:28:53;4.32;;;3.92;;
70705;SDS011;59320;52.316;10.870;2023-06-26T08:31:21;6.07;;;4.63;;
70705;SDS011;59320;52.316;10.870;2023-06-26T08:33:48;5.68;;;4.40;;
70705;SDS011;59320;52.316;10.870;2023-06-26T08:36:16;4.63;;;3.90;;
70705;SDS011;59320;52.316;10.870;2023-06-26T08:38:43;5.18;;;4.03;;
70705;SDS011;59320;52.316;10.870;2023-06-26T08:41:10;5.20;;;4.70;;
70705;SDS011;59320;52.316;10.870;2023-06-26T08:43:37;5.53;;;4.22;;
70705;SDS011;59320;52.316;10.870;2023-06-26T08:46:04;5.85;;;4.05;;
70705;SDS011;59320;52.316;10.870;2023-06-26T08:48:32;4.90;;;4.30;;
70705;SDS011;59320;52.316;10.870;2023-06-26T08:51:03;8.23;;;4.57;;
70705;SDS011;59320;52.316;10.870;2023-06-26T08:53:38;7.40;;;4.53;;
70705;SDS011;59320;52.316;10.870;2023-06-26T08:56:09;6.20;;;4.72;;
70705;SDS011;59320;52.316;10.870;2023-06-26T08:58:41;6.25;;;4.57;;
70705;SDS011;59320;52.316;10.870;2023-06-26T09:01:08;8.18;;;4.47;;
70705;SDS011;59320;52.316;10.870;2023-06-26T09:03:37;5.05;;;4.55;;
70705;SDS011;59320;52.316;10.870;2023-06-26T09:06:04;6.53;;;4.63;;
70705;SDS011;59320;52.316;10.870;2023-06-26T09:08:31;5.10;;;4.13;;
70705;SDS011;59320;52.316;10.870;2023-06-26T09:10:59;8.20;;;4.80;;
70705;SDS011;59320;52.316;10.870;2023-06-26T09:13:28;6.18;;;5.10;;
70705;SDS011;59320;52.316;10.870;2023-06-26T09:15:55;5.82;;;4.47;;
70705;SDS011;59320;52.316;10.870;2023-06-26T09:18:22;5.47;;;4.35;;
70705;SDS011;59320;52.316;10.870;2023-06-26T09:20:49;5.22;;;4.60;;
70705;SDS011;59320;52.316;10.870;2023-06-26T09:23:17;6.60;;;4.65;;
70705;SDS011;59320;52.316;10.870;2023-06-26T09:25:44;7.28;;;4.35;;
70705;SDS011;59320;52.316;10.870;2023-06-26T09:28:15;4.80;;;4.03;;
70705;SDS011;59320;52.316;10.870;2023-06-26T09:30:42;5.32;;;4.00;;
70705;SDS011;59320;52.316;10.870;2023-06-26T09:33:13;5.35;;;4.43;;
70705;SDS011;59320;52.316;10.870;2023-06-26T09:35:40;5.15;;;4.63;;
70705;SDS011;59320;52.316;10.870;2023-06-26T09:38:08;6.85;;;4.45;;
70705;SDS011;59320;52.316;10.870;2023-06-26T09:40:35;5.05;;;4.55;;
70705;SDS011;59320;52.316;10.870;2023-06-26T09:43:03;6.68;;;4.63;;
70705;SDS011;59320;52.316;10.870;2023-06-26T09:45:32;10.75;;;5.00;;
70705;SDS011;59320;52.316;10.870;2023-06-26T09:48:01;7.68;;;4.63;;
70705;SDS011;59320;52.316;10.870;2023-06-26T09:50:29;8.27;;;4.55;;
70705;SDS011;59320;52.316;10.870;2023-06-26T09:52:57;7.00;;;4.20;;
70705;SDS011;59320;52.316;10.870;2023-06-26T09:55:25;5.30;;;4.80;;
70705;SDS011;59320;52.316;10.870;2023-06-26T09:57:52;7.53;;;4.30;;
70705;SDS011;59320;52.316;10.870;2023-06-26T10:00:22;6.25;;;4.93;;
70705;SDS011;59320;52.316;10.870;2023-06-26T10:02:51;7.43;;;5.15;;
70705;SDS011;59320;52.316;10.870;2023-06-26T10:05:18;6.30;;;4.85;;
70705;SDS011;59320;52.316;10.870;2023-06-26T10:07:45;5.28;;;4.78;;
70705;SDS011;59320;52.316;10.870;2023-06-26T10:10:13;5.72;;;4.25;;
70705;SDS011;59320;52.316;10.870;2023-06-26T10:12:42;4.85;;;4.35;;
70705;SDS011;59320;52.316;10.870;2023-06-26T10:15:11;6.95;;;5.13;;
70705;SDS011;59320;52.316;10.870;2023-06-26T10:17:42;7.32;;;4.50;;
70705;SDS011;59320;52.316;10.870;2023-06-26T10:20:11;6.03;;;4.20;;
70705;SDS011;59320;52.316;10.870;2023-06-26T10:22:41;5.32;;;4.38;;
70705;SDS011;59320;52.316;10.870;2023-06-26T10:25:12;6.05;;;5.30;;
70705;SDS011;59320;52.316;10.870;2023-06-26T10:27:44;5.95;;;4.93;;
70705;SDS011;59320;52.316;10.870;2023-06-26T10:30:16;6.10;;;4.30;;
70705;SDS011;59320;52.316;10.870;2023-06-26T10:32:47;6.78;;;5.00;;
70705;SDS011;59320;52.316;10.870;2023-06-26T10:35:16;6.80;;;4.80;;
70705;SDS011;59320;52.316;10.870;2023-06-26T10:37:44;7.43;;;4.32;;
70705;SDS011;59320;52.316;10.870;2023-06-26T10:40:12;5.40;;;4.90;;
70705;SDS011;59320;52.316;10.870;2023-06-26T10:42:42;11.05;;;5.32;;
70705;SDS011;59320;52.316;10.870;2023-06-26T10:45:10;5.82;;;5.22;;
70705;SDS011;59320;52.316;10.870;2023-06-26T10:47:40;6.53;;;5.75;;
70705;SDS011;59320;52.316;10.870;2023-06-26T10:50:23;5.60;;;5.13;;
70705;SDS011;59320;52.316;10.870;2023-06-26T10:53:07;5.93;;;4.88;;
70705;SDS011;59320;52.316;10.870;2023-06-26T10:55:35;6.07;;;5.28;;
70705;SDS011;59320;52.316;10.870;2023-06-26T10:58:02;8.95;;;5.57;;
70705;SDS011;59320;52.316;10.870;2023-06-26T11:00:29;10.32;;;5.47;;
70705;SDS011;59320;52.316;10.870;2023-06-26T11:02:57;8.73;;;5.20;;
70705;SDS011;59320;52.316;10.870;2023-06-26T11:05:28;7.57;;;5.38;;
70705;SDS011;59320;52.316;10.870;2023-06-26T11:08:02;10.98;;;5.65;;
70705;SDS011;59320;52.316;10.870;2023-06-26T11:10:30;6.60;;;5.90;;
70705;SDS011;59320;52.316;10.870;2023-06-26T11:13:15;9.73;;;5.88;;
70705;SDS011;59320;52.316;10.870;2023-06-26T11:15:43;6.55;;;5.95;;
70705;SDS011;59320;52.316;10.870;2023-06-26T11:18:10;8.90;;;5.68;;
70705;SDS011;59320;52.316;10.870;2023-06-26T11:20:40;9.50;;;6.50;;
70705;SDS011;59320;52.316;10.870;2023-06-26T11:23:07;7.20;;;6.35;;
70705;SDS011;59320;52.316;10.870;2023-06-26T11:25:35;11.73;;;6.38;;
70705;SDS011;59320;52.316;10.870;2023-06-26T11:28:03;11.98;;;6.85;;
70705;SDS011;59320;52.316;10.870;2023-06-26T11:30:31;7.43;;;6.65;;
70705;SDS011;59320;52.316;10.870;2023-06-26T11:33:05;9.55;;;6.90;;
70705;SDS011;59320;52.316;10.870;2023-06-26T11:35:33;13.75;;;7.00;;
70705;SDS011;59320;52.316;10.870;2023-06-26T11:38:02;9.55;;;6.88;;
70705;SDS011;59320;52.316;10.870;2023-06-26T11:40:30;10.43;;;7.18;;
70705;SDS011;59320;52.316;10.870;2023-06-26T11:42:59;10.73;;;7.32;;
70705;SDS011;59320;52.316;10.870;2023-06-26T11:45:27;10.32;;;7.68;;
70705;SDS011;59320;52.316;10.870;2023-06-26T11:47:55;9.30;;;7.30;;
70705;SDS011;59320;52.316;10.870;2023-06-26T11:50:22;13.60;;;8.20;;
70705;SDS011;59320;52.316;10.870;2023-06-26T11:52:53;9.57;;;6.53;;
70705;SDS011;59320;52.316;10.870;2023-06-26T11:55:22;7.95;;;6.63;;
70705;SDS011;59320;52.316;10.870;2023-06-26T11:57:50;13.80;;;7.50;;
70705;SDS011;59320;52.316;10.870;2023-06-26T12:00:20;16.67;;;9.23;;
70705;SDS011;59320;52.316;10.870;2023-06-26T12:02:48;13.05;;;9.07;;
70705;SDS011;59320;52.316;10.870;2023-06-26T12:05:17;17.40;;;8.60;;
70705;SDS011;59320;52.316;10.870;2023-06-26T12:07:44;10.73;;;7.07;;
70705;SDS011;59320;52.316;10.870;2023-06-26T12:10:14;12.35;;;6.85;;
70705;SDS011;59320;52.316;10.870;2023-06-26T12:12:43;11.13;;;6.82;;
70705;SDS011;59320;52.316;10.870;2023-06-26T12:15:12;10.45;;;7.00;;
70705;SDS011;59320;52.316;10.870;2023-06-26T12:17:40;10.45;;;7.93;;
70705;SDS011;59320;52.316;10.870;2023-06-26T12:20:16;11.13;;;6.82;;
70705;SDS011;59320;52.316;10.870;2023-06-26T12:22:45;7.13;;;5.93;;
70705;SDS011;59320;52.316;10.870;2023-06-26T12:25:13;12.57;;;6.10;;
70705;SDS011;59320;52.316;10.870;2023-06-26T12:27:40;6.80;;;5.65;;
70705;SDS011;59320;52.316;10.870;2023-06-26T12:30:09;12.80;;;5.65;;
70705;SDS011;59320;52.316;10.870;2023-06-26T12:32:37;10.07;;;5.65;;
70705;SDS011;59320;52.316;10.870;2023-06-26T12:35:04;7.15;;;5.70;;
70705;SDS011;59320;52.316;10.870;2023-06-26T12:37:36;8.45;;;5.45;;
70705;SDS011;59320;52.316;10.870;2023-06-26T12:40:10;6.60;;;5.90;;
70705;SDS011;59320;52.316;10.870;2023-06-26T12:42:42;9.18;;;5.70;;
70705;SDS011;59320;52.316;10.870;2023-06-26T12:45:12;7.93;;;6.03;;
70705;SDS011;59320;52.316;10.870;2023-06-26T12:47:39;11.30;;;6.10;;
70705;SDS011;59320;52.316;10.870;2023-06-26T12:50:07;9.43;;;6.25;;
70705;SDS011;59320;52.316;10.870;2023-06-26T12:52:35;10.52;;;5.93;;
70705;SDS011;59320;52.316;10.870;2023-06-26T12:55:02;15.77;;;7.32;;
70705;SDS011;59320;52.316;10.870;2023-06-26T12:57:31;14.35;;;7.55;;
70705;SDS011;59320;52.316;10.870;2023-06-26T12:59:58;15.18;;;8.25;;
70705;SDS011;59320;52.316;10.870;2023-06-26T13:02:27;22.92;;;8.82;;
70705;SDS011;59320;52.316;10.870;2023-06-26T13:04:54;17.08;;;8.50;;
70705;SDS011;59320;52.316;10.870;2023-06-26T13:07:21;17.13;;;8.75;;
70705;SDS011;59320;52.316;10.870;2023-06-26T13:09:50;15.68;;;8.20;;
70705;SDS011;59320;52.316;10.870;2023-06-26T13:12:18;12.05;;;8.73;;
70705;SDS011;59320;52.316;10.870;2023-06-26T13:14:45;11.00;;;8.18;;
70705;SDS011;59320;52.316;10.870;2023-06-26T13:17:18;9.93;;;7.90;;
70705;SDS011;59320;52.316;10.870;2023-06-26T13:19:47;13.77;;;9.10;;
70705;SDS011;59320;52.316;10.870;2023-06-26T13:22:14;10.82;;;8.40;;
70705;SDS011;59320;52.316;10.870;2023-06-26T13:24:41;8.80;;;7.72;;
70705;SDS011;59320;52.316;10.870;2023-06-26T13:27:08;14.05;;;8.10;;
70705;SDS011;59320;52.316;10.870;2023-06-26T13:29:35;13.88;;;8.35;;
70705;SDS011;59320;52.316;10.870;2023-06-26T13:32:02;10.30;;;7.88;;
70705;SDS011;59320;52.316;10.870;2023-06-26T13:34:30;11.73;;;7.05;;
70705;SDS011;59320;52.316;10.870;2023-06-26T13:36:58;12.60;;;7.57;;
70705;SDS011;59320;52.316;10.870;2023-06-26T13:39:26;8.48;;;7.10;;
70705;SDS011;59320;52.316;10.870;2023-06-26T13:41:53;9.30;;;7.00;;
70705;SDS011;59320;52.316;10.870;2023-06-26T13:44:20;8.45;;;7.38;;
70705;SDS011;59320;52.316;10.870;2023-06-26T13:46:47;10.35;;;7.20;;
70705;SDS011;59320;52.316;10.870;2023-06-26T13:49:14;9.35;;;6.72;;
70705;SDS011;59320;52.316;10.870;2023-06-26T13:51:41;9.60;;;6.63;;
70705;SDS011;59320;52.316;10.870;2023-06-26T13:54:13;14.32;;;6.50;;
70705;SDS011;59320;52.316;10.870;2023-06-26T13:56:40;12.00;;;6.63;;
70705;SDS011;59320;52.316;10.870;2023-06-26T13:59:07;9.15;;;5.70;;
70705;SDS011;59320;52.316;10.870;2023-06-26T14:01:34;7.43;;;6.00;;
70705;SDS011;59320;52.316;10.870;2023-06-26T14:04:01;12.05;;;5.60;;
70705;SDS011;59320;52.316;10.870;2023-06-26T14:06:28;8.95;;;5.13;;
70705;SDS011;59320;52.316;10.870;2023-06-26T14:08:57;6.90;;;4.40;;
70705;SDS011;59320;52.316;10.870;2023-06-26T14:11:26;7.57;;;4.95;;
70705;SDS011;59320;52.316;10.870;2023-06-26T14:13:56;6.40;;;4.45;;
70705;SDS011;59320;52.316;10.870;2023-06-26T14:16:24;6.07;;;4.15;;
70705;SDS011;59320;52.316;10.870;2023-06-26T14:18:51;7.35;;;4.70;;
70705;SDS011;59320;52.316;10.870;2023-06-26T14:21:18;7.80;;;4.30;;
70705;SDS011;59320;52.316;10.870;2023-06-26T14:23:45;6.07;;;4.28;;
70705;SDS011;59320;52.316;10.870;2023-06-26T14:26:13;6.47;;;4.22;;
70705;SDS011;59320;52.316;10.870;2023-06-26T14:28:41;8.18;;;4.10;;
70705;SDS011;59320;52.316;10.870;2023-06-26T14:31:08;8.52;;;3.90;;
70705;SDS011;59320;52.316;10.870;2023-06-26T14:33:35;8.75;;;4.20;;
70705;SDS011;59320;52.316;10.870;2023-06-26T14:36:03;7.50;;;4.00;;
70705;SDS011;59320;52.316;10.870;2023-06-26T14:38:30;6.75;;;3.70;;